sensor_id;sensor_type;location;lat;lon;timestamp;pressure;altitude;pressure_sealevel;temperature;humidity
7335;BME280;3708;42.632;23.378;2023-05-29T00:00:25;94094.66;;;18.28;56.62
7335;BME280;3708;42.632;23.378;2023-05-29T00:02:52;94101.56;;;18.43;56.57
7335;BME280;3708;42.632;23.378;2023-05-29T00:05:19;94100.53;;;18.58;56.34
7335;BME280;3708;42.632;23.378;2023-05-29T00:07:46;94104.00;;;18.69;56.24
7335;BME280;3708;42.632;23.378;2023-05-29T00:10:14;94090.00;;;18.76;56.02
7335;BME280;3708;42.632;23.378;2023-05-29T00:12:42;94094.16;;;18.77;56.08
7335;BME280;3708;42.632;23.378;2023-05-29T00:15:10;94102.47;;;18.68;55.64
7335;BME280;3708;42.632;23.378;2023-05-29T00:17:38;94101.31;;;18.62;55.83
7335;BME280;3708;42.632;23.378;2023-05-29T00:20:06;94103.97;;;18.62;55.72
7335;BME280;3708;42.632;23.378;2023-05-29T00:22:34;94103.19;;;18.58;55.98
7335;BME280;3708;42.632;23.378;2023-05-29T00:25:03;94106.88;;;18.43;56.36
7335;BME280;3708;42.632;23.378;2023-05-29T00:27:30;94108.25;;;18.23;56.67
7335;BME280;3708;42.632;23.378;2023-05-29T00:29:58;94100.78;;;18.39;56.52
7335;BME280;3708;42.632;23.378;2023-05-29T00:32:26;94100.69;;;18.25;55.89
7335;BME280;3708;42.632;23.378;2023-05-29T00:34:53;94102.56;;;18.21;56.32
7335;BME280;3708;42.632;23.378;2023-05-29T00:37:21;94092.66;;;18.11;56.80
7335;BME280;3708;42.632;23.378;2023-05-29T00:39:48;94106.75;;;18.22;56.61
7335;BME280;3708;42.632;23.378;2023-05-29T00:42:15;94109.03;;;18.23;56.56
7335;BME280;3708;42.632;23.378;2023-05-29T00:44:42;94100.69;;;18.25;56.48
7335;BME280;3708;42.632;23.378;2023-05-29T00:47:09;94106.03;;;18.28;56.47
7335;BME280;3708;42.632;23.378;2023-05-29T00:49:37;94098.41;;;18.23;56.61
7335;BME280;3708;42.632;23.378;2023-05-29T00:52:05;94096.88;;;18.19;56.75
7335;BME280;3708;42.632;23.378;2023-05-29T00:54:34;94092.28;;;18.09;57.23
7335;BME280;3708;42.632;23.378;2023-05-29T00:57:01;94089.56;;;18.02;57.34
7335;BME280;3708;42.632;23.378;2023-05-29T00:59:31;94083.81;;;17.93;57.71
7335;BME280;3708;42.632;23.378;2023-05-29T01:01:59;94079.91;;;17.76;58.42
7335;BME280;3708;42.632;23.378;2023-05-29T01:04:27;94082.19;;;17.78;58.55
7335;BME280;3708;42.632;23.378;2023-05-29T01:06:55;94085.88;;;16.89;60.88
7335;BME280;3708;42.632;23.378;2023-05-29T01:09:22;94085.09;;;16.89;61.54
7335;BME280;3708;42.632;23.378;2023-05-29T01:12:10;94077.19;;;16.29;63.31
7335;BME280;3708;42.632;23.378;2023-05-29T01:14:48;94095.44;;;16.67;63.01
7335;BME280;3708;42.632;23.378;2023-05-29T01:17:24;94090.06;;;17.27;61.70
7335;BME280;3708;42.632;23.378;2023-05-29T01:20:08;94094.56;;;17.60;60.81
7335;BME280;3708;42.632;23.378;2023-05-29T01:23:04;94086.72;;;17.74;59.94
7335;BME280;3708;42.632;23.378;2023-05-29T01:25:46;94090.59;;;17.90;59.32
7335;BME280;3708;42.632;23.378;2023-05-29T01:28:20;94093.69;;;17.96;58.75
7335;BME280;3708;42.632;23.378;2023-05-29T01:30:49;94096.72;;;17.98;58.44
7335;BME280;3708;42.632;23.378;2023-05-29T01:33:17;94088.03;;;18.01;58.05
7335;BME280;3708;42.632;23.378;2023-05-29T01:35:44;94081.16;;;17.93;57.87
7335;BME280;3708;42.632;23.378;2023-05-29T01:38:11;94090.28;;;17.95;58.02
7335;BME280;3708;42.632;23.378;2023-05-29T01:40:38;94082.66;;;17.87;57.77
7335;BME280;3708;42.632;23.378;2023-05-29T01:43:05;94091.75;;;17.89;57.81
7335;BME280;3708;42.632;23.378;2023-05-29T01:45:34;94085.63;;;17.82;57.87
7335;BME280;3708;42.632;23.378;2023-05-29T01:48:01;94086.81;;;17.88;58.01
7335;BME280;3708;42.632;23.378;2023-05-29T01:50:28;94091.91;;;17.63;58.36
7335;BME280;3708;42.632;23.378;2023-05-29T01:52:55;94090.41;;;16.29;62.90
7335;BME280;3708;42.632;23.378;2023-05-29T01:55:22;94084.56;;;16.46;62.84
7335;BME280;3708;42.632;23.378;2023-05-29T01:57:49;94082.00;;;16.80;61.82
7335;BME280;3708;42.632;23.378;2023-05-29T02:00:17;94091.41;;;16.47;62.62
7335;BME280;3708;42.632;23.378;2023-05-29T02:02:46;94085.66;;;15.89;64.41
7335;BME280;3708;42.632;23.378;2023-05-29T02:05:12;94079.88;;;15.35;67.46
7335;BME280;3708;42.632;23.378;2023-05-29T02:07:39;94085.97;;;15.39;68.10
7335;BME280;3708;42.632;23.378;2023-05-29T02:10:06;94073.28;;;15.93;66.88
7335;BME280;3708;42.632;23.378;2023-05-29T02:12:33;94087.47;;;16.08;66.40
7335;BME280;3708;42.632;23.378;2023-05-29T02:15:00;94082.28;;;16.45;65.10
7335;BME280;3708;42.632;23.378;2023-05-29T02:17:27;94077.16;;;15.99;66.34
7335;BME280;3708;42.632;23.378;2023-05-29T02:19:55;94081.22;;;15.03;69.41
7335;BME280;3708;42.632;23.378;2023-05-29T02:22:22;94077.69;;;15.41;68.85
7335;BME280;3708;42.632;23.378;2023-05-29T02:24:48;94068.97;;;15.82;67.67
7335;BME280;3708;42.632;23.378;2023-05-29T02:27:15;94067.00;;;15.53;68.95
7335;BME280;3708;42.632;23.378;2023-05-29T02:29:42;94072.56;;;15.96;67.47
7335;BME280;3708;42.632;23.378;2023-05-29T02:32:09;94083.97;;;16.56;65.83
7335;BME280;3708;42.632;23.378;2023-05-29T02:34:35;94082.41;;;16.85;64.50
7335;BME280;3708;42.632;23.378;2023-05-29T02:37:04;94081.13;;;16.13;66.45
7335;BME280;3708;42.632;23.378;2023-05-29T02:39:31;94077.75;;;15.89;67.71
7335;BME280;3708;42.632;23.378;2023-05-29T02:41:57;94081.41;;;15.81;68.00
7335;BME280;3708;42.632;23.378;2023-05-29T02:44:24;94082.75;;;16.50;65.34
7335;BME280;3708;42.632;23.378;2023-05-29T02:46:51;94087.56;;;16.71;64.76
7335;BME280;3708;42.632;23.378;2023-05-29T02:49:18;94094.13;;;16.84;64.27
7335;BME280;3708;42.632;23.378;2023-05-29T02:51:44;94082.50;;;16.59;65.00
7335;BME280;3708;42.632;23.378;2023-05-29T02:54:13;94087.06;;;16.95;63.96
7335;BME280;3708;42.632;23.378;2023-05-29T02:56:39;94090.13;;;16.64;64.95
7335;BME280;3708;42.632;23.378;2023-05-29T02:59:06;94083.53;;;16.51;64.97
7335;BME280;3708;42.632;23.378;2023-05-29T03:01:33;94089.00;;;16.98;64.39
7335;BME280;3708;42.632;23.378;2023-05-29T03:04:00;94087.44;;;17.34;63.50
7335;BME280;3708;42.632;23.378;2023-05-29T03:06:26;94088.50;;;17.63;62.52
7335;BME280;3708;42.632;23.378;2023-05-29T03:08:54;94098.06;;;17.74;61.88
7335;BME280;3708;42.632;23.378;2023-05-29T03:11:22;94100.09;;;17.91;61.42
7335;BME280;3708;42.632;23.378;2023-05-29T03:13:50;94096.81;;;18.08;61.04
7335;BME280;3708;42.632;23.378;2023-05-29T03:16:17;94095.31;;;18.14;60.38
7335;BME280;3708;42.632;23.378;2023-05-29T03:18:43;94093.88;;;18.24;60.11
7335;BME280;3708;42.632;23.378;2023-05-29T03:21:10;94087.72;;;18.09;59.51
7335;BME280;3708;42.632;23.378;2023-05-29T03:23:37;94095.66;;;18.06;59.58
7335;BME280;3708;42.632;23.378;2023-05-29T03:26:04;94095.28;;;18.07;59.25
7335;BME280;3708;42.632;23.378;2023-05-29T03:28:32;94098.28;;;18.06;59.00
7335;BME280;3708;42.632;23.378;2023-05-29T03:30:59;94094.53;;;18.07;59.21
7335;BME280;3708;42.632;23.378;2023-05-29T03:33:27;94088.78;;;17.98;59.46
7335;BME280;3708;42.632;23.378;2023-05-29T03:35:54;94105.13;;;18.07;59.55
7335;BME280;3708;42.632;23.378;2023-05-29T03:38:23;94107.84;;;18.17;59.41
7335;BME280;3708;42.632;23.378;2023-05-29T03:40:51;94109.09;;;18.34;59.09
7335;BME280;3708;42.632;23.378;2023-05-29T03:43:18;94115.28;;;18.52;59.13
7335;BME280;3708;42.632;23.378;2023-05-29T03:45:47;94124.06;;;18.67;58.81
7335;BME280;3708;42.632;23.378;2023-05-29T03:48:14;94127.53;;;18.81;58.51
7335;BME280;3708;42.632;23.378;2023-05-29T03:50:41;94125.28;;;18.80;58.48
7335;BME280;3708;42.632;23.378;2023-05-29T03:53:08;94125.34;;;18.97;58.42
7335;BME280;3708;42.632;23.378;2023-05-29T03:55:35;94123.81;;;18.96;58.19
7335;BME280;3708;42.632;23.378;2023-05-29T03:58:02;94130.69;;;19.15;57.86
7335;BME280;3708;42.632;23.378;2023-05-29T04:00:28;94125.44;;;19.29;57.42
7335;BME280;3708;42.632;23.378;2023-05-29T04:02:56;94131.56;;;19.44;56.77
7335;BME280;3708;42.632;23.378;2023-05-29T04:05:23;94137.66;;;19.55;56.28
7335;BME280;3708;42.632;23.378;2023-05-29T04:07:52;94139.19;;;19.52;56.20
7335;BME280;3708;42.632;23.378;2023-05-29T04:10:19;94140.22;;;19.30;56.54
7335;BME280;3708;42.632;23.378;2023-05-29T04:12:46;94143.72;;;19.52;55.80
7335;BME280;3708;42.632;23.378;2023-05-29T04:15:12;94150.97;;;19.69;55.23
7335;BME280;3708;42.632;23.378;2023-05-29T04:17:39;94142.66;;;19.81;54.89
7335;BME280;3708;42.632;23.378;2023-05-29T04:20:08;94149.50;;;19.96;54.74
7335;BME280;3708;42.632;23.378;2023-05-29T04:22:35;94148.34;;;20.08;54.70
7335;BME280;3708;42.632;23.378;2023-05-29T04:25:03;94148.72;;;20.17;54.37
7335;BME280;3708;42.632;23.378;2023-05-29T04:27:30;94146.84;;;20.24;54.20
7335;BME280;3708;42.632;23.378;2023-05-29T04:29:57;94147.22;;;20.37;54.12
7335;BME280;3708;42.632;23.378;2023-05-29T04:32:28;94152.88;;;20.53;54.05
7335;BME280;3708;42.632;23.378;2023-05-29T04:34:54;94149.84;;;20.65;54.13
7335;BME280;3708;42.632;23.378;2023-05-29T04:37:28;94144.09;;;20.74;54.29
7335;BME280;3708;42.632;23.378;2023-05-29T04:39:57;94148.66;;;20.77;54.71
7335;BME280;3708;42.632;23.378;2023-05-29T04:42:24;94151.72;;;20.72;54.93
7335;BME280;3708;42.632;23.378;2023-05-29T04:44:51;94155.94;;;20.59;55.53
7335;BME280;3708;42.632;23.378;2023-05-29T04:47:18;94154.81;;;20.35;56.33
7335;BME280;3708;42.632;23.378;2023-05-29T04:49:45;94153.66;;;20.57;55.68
7335;BME280;3708;42.632;23.378;2023-05-29T04:52:15;94143.69;;;20.82;55.03
7335;BME280;3708;42.632;23.378;2023-05-29T04:54:43;94151.25;;;21.01;54.67
7335;BME280;3708;42.632;23.378;2023-05-29T04:57:10;94163.00;;;21.21;53.73
7335;BME280;3708;42.632;23.378;2023-05-29T04:59:37;94164.16;;;21.17;53.01
7335;BME280;3708;42.632;23.378;2023-05-29T05:02:04;94173.25;;;21.23;52.70
7335;BME280;3708;42.632;23.378;2023-05-29T05:04:32;94173.59;;;21.32;52.73
7335;BME280;3708;42.632;23.378;2023-05-29T05:07:00;94178.84;;;21.50;52.52
7335;BME280;3708;42.632;23.378;2023-05-29T05:09:28;94173.81;;;21.69;52.51
7335;BME280;3708;42.632;23.378;2023-05-29T05:11:56;94180.97;;;21.83;51.37
7335;BME280;3708;42.632;23.378;2023-05-29T05:14:23;94185.94;;;21.77;51.61
7335;BME280;3708;42.632;23.378;2023-05-29T05:16:50;94190.59;;;21.59;52.41
7335;BME280;3708;42.632;23.378;2023-05-29T05:19:17;94183.84;;;21.37;52.46
7335;BME280;3708;42.632;23.378;2023-05-29T05:21:44;94193.72;;;21.40;51.85
7335;BME280;3708;42.632;23.378;2023-05-29T05:24:11;94184.72;;;21.13;52.67
7335;BME280;3708;42.632;23.378;2023-05-29T05:26:37;94185.09;;;21.15;52.46
7335;BME280;3708;42.632;23.378;2023-05-29T05:29:06;94186.69;;;20.81;53.17
7335;BME280;3708;42.632;23.378;2023-05-29T05:31:32;94189.34;;;20.74;53.59
7335;BME280;3708;42.632;23.378;2023-05-29T05:33:59;94183.22;;;20.98;53.11
7335;BME280;3708;42.632;23.378;2023-05-29T05:36:26;94185.41;;;21.35;52.80
7335;BME280;3708;42.632;23.378;2023-05-29T05:38:53;94184.47;;;21.66;52.14
7335;BME280;3708;42.632;23.378;2023-05-29T05:41:20;94181.63;;;21.25;52.68
7335;BME280;3708;42.632;23.378;2023-05-29T05:43:47;94189.22;;;21.30;52.32
7335;BME280;3708;42.632;23.378;2023-05-29T05:46:15;94188.34;;;21.54;51.93
7335;BME280;3708;42.632;23.378;2023-05-29T05:48:43;94178.31;;;21.79;51.48
7335;BME280;3708;42.632;23.378;2023-05-29T05:51:10;94185.09;;;21.94;50.46
7335;BME280;3708;42.632;23.378;2023-05-29T05:53:37;94184.22;;;22.12;49.21
7335;BME280;3708;42.632;23.378;2023-05-29T05:56:04;94190.28;;;22.16;48.86
7335;BME280;3708;42.632;23.378;2023-05-29T05:58:31;94184.13;;;22.22;49.28
7335;BME280;3708;42.632;23.378;2023-05-29T06:00:58;94193.19;;;21.73;50.59
7335;BME280;3708;42.632;23.378;2023-05-29T06:03:27;94188.13;;;21.96;50.12
7335;BME280;3708;42.632;23.378;2023-05-29T06:05:56;94184.97;;;22.09;50.20
7335;BME280;3708;42.632;23.378;2023-05-29T06:08:37;94188.78;;;22.11;51.09
7335;BME280;3708;42.632;23.378;2023-05-29T06:11:16;94189.00;;;21.72;50.25
7335;BME280;3708;42.632;23.378;2023-05-29T06:13:49;94187.22;;;21.48;50.75
7335;BME280;3708;42.632;23.378;2023-05-29T06:16:17;94188.31;;;21.58;51.18
7335;BME280;3708;42.632;23.378;2023-05-29T06:18:45;94185.53;;;21.79;50.74
7335;BME280;3708;42.632;23.378;2023-05-29T06:21:12;94192.00;;;21.81;50.19
7335;BME280;3708;42.632;23.378;2023-05-29T06:23:39;94194.66;;;21.85;50.29
7335;BME280;3708;42.632;23.378;2023-05-29T06:26:06;94199.34;;;21.60;50.67
7335;BME280;3708;42.632;23.378;2023-05-29T06:28:33;94198.22;;;21.61;51.01
7335;BME280;3708;42.632;23.378;2023-05-29T06:31:00;94204.19;;;21.79;50.73
7335;BME280;3708;42.632;23.378;2023-05-29T06:33:27;94203.13;;;21.66;50.92
7335;BME280;3708;42.632;23.378;2023-05-29T06:35:56;94197.44;;;21.60;50.91
7335;BME280;3708;42.632;23.378;2023-05-29T06:38:23;94197.88;;;21.48;51.53
7335;BME280;3708;42.632;23.378;2023-05-29T06:40:50;94202.69;;;21.78;51.28
7335;BME280;3708;42.632;23.378;2023-05-29T06:43:17;94188.66;;;21.67;51.55
7335;BME280;3708;42.632;23.378;2023-05-29T06:45:44;94189.47;;;21.60;51.89
7335;BME280;3708;42.632;23.378;2023-05-29T06:48:11;94195.94;;;21.56;51.62
7335;BME280;3708;42.632;23.378;2023-05-29T06:50:38;94188.56;;;20.84;52.73
7335;BME280;3708;42.632;23.378;2023-05-29T06:53:06;94192.44;;;20.40;54.51
7335;BME280;3708;42.632;23.378;2023-05-29T06:55:33;94193.13;;;20.83;52.91
7335;BME280;3708;42.632;23.378;2023-05-29T06:58:00;94195.47;;;20.46;52.99
7335;BME280;3708;42.632;23.378;2023-05-29T07:00:26;94194.19;;;21.21;51.54
7335;BME280;3708;42.632;23.378;2023-05-29T07:02:54;94191.56;;;20.96;52.38
7335;BME280;3708;42.632;23.378;2023-05-29T07:05:20;94196.75;;;21.49;51.65
7335;BME280;3708;42.632;23.378;2023-05-29T07:07:50;94188.97;;;20.82;52.16
7335;BME280;3708;42.632;23.378;2023-05-29T07:10:19;94196.25;;;20.32;52.29
7335;BME280;3708;42.632;23.378;2023-05-29T07:12:45;94194.69;;;20.67;53.11
7335;BME280;3708;42.632;23.378;2023-05-29T07:15:13;94202.66;;;21.88;50.46
7335;BME280;3708;42.632;23.378;2023-05-29T07:17:40;94202.31;;;22.34;48.55
7335;BME280;3708;42.632;23.378;2023-05-29T07:20:07;94204.00;;;22.14;49.40
7335;BME280;3708;42.632;23.378;2023-05-29T07:22:35;94193.22;;;22.28;49.97
7335;BME280;3708;42.632;23.378;2023-05-29T07:25:05;94194.47;;;21.44;51.32
7335;BME280;3708;42.632;23.378;2023-05-29T07:27:36;94195.16;;;21.62;50.67
7335;BME280;3708;42.632;23.378;2023-05-29T07:30:04;94199.56;;;21.97;49.28
7335;BME280;3708;42.632;23.378;2023-05-29T07:32:34;94204.81;;;22.08;48.74
7335;BME280;3708;42.632;23.378;2023-05-29T07:35:05;94200.25;;;22.05;49.26
7335;BME280;3708;42.632;23.378;2023-05-29T07:37:32;94202.88;;;22.63;48.00
7335;BME280;3708;42.632;23.378;2023-05-29T07:39:59;94194.75;;;22.73;47.73
7335;BME280;3708;42.632;23.378;2023-05-29T07:42:25;94198.84;;;22.85;46.89
7335;BME280;3708;42.632;23.378;2023-05-29T07:44:54;94195.81;;;23.20;46.86
7335;BME280;3708;42.632;23.378;2023-05-29T07:47:20;94201.56;;;23.53;45.88
7335;BME280;3708;42.632;23.378;2023-05-29T07:49:48;94197.19;;;22.98;46.68
7335;BME280;3708;42.632;23.378;2023-05-29T07:52:15;94198.91;;;22.34;48.67
7335;BME280;3708;42.632;23.378;2023-05-29T07:54:44;94195.91;;;21.59;50.64
7335;BME280;3708;42.632;23.378;2023-05-29T07:57:14;94187.47;;;21.75;50.25
7335;BME280;3708;42.632;23.378;2023-05-29T07:59:41;94201.66;;;22.20;48.84
7335;BME280;3708;42.632;23.378;2023-05-29T08:02:12;94196.78;;;22.15;49.44
7335;BME280;3708;42.632;23.378;2023-05-29T08:04:39;94191.88;;;22.02;48.96
7335;BME280;3708;42.632;23.378;2023-05-29T08:07:06;94198.31;;;22.12;49.36
7335;BME280;3708;42.632;23.378;2023-05-29T08:09:33;94196.16;;;22.44;48.46
7335;BME280;3708;42.632;23.378;2023-05-29T08:12:00;94204.88;;;22.48;48.60
7335;BME280;3708;42.632;23.378;2023-05-29T08:14:27;94192.69;;;22.88;48.26
7335;BME280;3708;42.632;23.378;2023-05-29T08:16:56;94196.78;;;23.37;46.88
7335;BME280;3708;42.632;23.378;2023-05-29T08:19:27;94194.94;;;24.17;44.90
7335;BME280;3708;42.632;23.378;2023-05-29T08:21:54;94192.16;;;24.48;43.65
7335;BME280;3708;42.632;23.378;2023-05-29T08:24:21;94191.88;;;24.65;43.33
7335;BME280;3708;42.632;23.378;2023-05-29T08:26:50;94202.59;;;25.08;43.48
7335;BME280;3708;42.632;23.378;2023-05-29T08:29:17;94196.34;;;24.75;43.16
7335;BME280;3708;42.632;23.378;2023-05-29T08:31:44;94197.59;;;25.30;42.50
7335;BME280;3708;42.632;23.378;2023-05-29T08:34:11;94201.91;;;25.47;40.87
7335;BME280;3708;42.632;23.378;2023-05-29T08:36:40;94199.63;;;24.60;40.98
7335;BME280;3708;42.632;23.378;2023-05-29T08:39:07;94197.06;;;24.76;41.38
7335;BME280;3708;42.632;23.378;2023-05-29T08:41:42;94194.72;;;25.21;40.78
7335;BME280;3708;42.632;23.378;2023-05-29T08:44:19;94189.91;;;25.71;40.92
7335;BME280;3708;42.632;23.378;2023-05-29T08:46:49;94191.28;;;25.40;41.42
7335;BME280;3708;42.632;23.378;2023-05-29T08:49:22;94185.53;;;24.79;42.42
7335;BME280;3708;42.632;23.378;2023-05-29T08:51:59;94188.00;;;22.99;46.84
7335;BME280;3708;42.632;23.378;2023-05-29T08:54:30;94194.03;;;22.69;47.48
7335;BME280;3708;42.632;23.378;2023-05-29T08:56:58;94188.97;;;21.86;49.20
7335;BME280;3708;42.632;23.378;2023-05-29T08:59:27;94182.00;;;22.92;47.36
7335;BME280;3708;42.632;23.378;2023-05-29T09:01:56;94178.28;;;23.49;44.94
7335;BME280;3708;42.632;23.378;2023-05-29T09:04:23;94167.06;;;22.57;46.80
7335;BME280;3708;42.632;23.378;2023-05-29T09:06:51;94175.41;;;22.62;46.54
7335;BME280;3708;42.632;23.378;2023-05-29T09:09:22;94176.88;;;22.67;46.42
7335;BME280;3708;42.632;23.378;2023-05-29T09:11:49;94172.75;;;23.00;45.62
7335;BME280;3708;42.632;23.378;2023-05-29T09:14:34;94175.06;;;22.09;46.29
7335;BME280;3708;42.632;23.378;2023-05-29T09:17:02;94169.94;;;22.77;45.27
7335;BME280;3708;42.632;23.378;2023-05-29T09:19:31;94165.78;;;22.28;45.79
7335;BME280;3708;42.632;23.378;2023-05-29T09:22:03;94161.38;;;22.07;45.83
7335;BME280;3708;42.632;23.378;2023-05-29T09:24:36;94161.72;;;22.57;44.34
7335;BME280;3708;42.632;23.378;2023-05-29T09:27:04;94157.44;;;22.22;45.96
7335;BME280;3708;42.632;23.378;2023-05-29T09:29:35;94148.84;;;23.19;43.65
7335;BME280;3708;42.632;23.378;2023-05-29T09:32:07;94155.50;;;23.68;41.93
7335;BME280;3708;42.632;23.378;2023-05-29T09:34:34;94151.41;;;24.13;41.07
7335;BME280;3708;42.632;23.378;2023-05-29T09:37:02;94139.84;;;24.43;40.48
7335;BME280;3708;42.632;23.378;2023-05-29T09:39:47;94141.69;;;24.92;39.75
7335;BME280;3708;42.632;23.378;2023-05-29T09:42:16;94145.03;;;23.81;41.16
7335;BME280;3708;42.632;23.378;2023-05-29T09:44:48;94137.38;;;23.22;42.89
7335;BME280;3708;42.632;23.378;2023-05-29T09:47:17;94134.53;;;23.36;42.10
7335;BME280;3708;42.632;23.378;2023-05-29T09:49:45;94135.53;;;23.49;41.28
7335;BME280;3708;42.632;23.378;2023-05-29T09:52:14;94136.69;;;23.75;41.79
7335;BME280;3708;42.632;23.378;2023-05-29T09:54:42;94132.56;;;24.44;41.62
7335;BME280;3708;42.632;23.378;2023-05-29T09:57:12;94133.22;;;24.51;41.05
7335;BME280;3708;42.632;23.378;2023-05-29T09:59:41;94130.00;;;25.03;40.25
7335;BME280;3708;42.632;23.378;2023-05-29T10:02:13;94130.25;;;25.28;39.08
7335;BME280;3708;42.632;23.378;2023-05-29T10:04:42;94133.47;;;25.58;38.49
7335;BME280;3708;42.632;23.378;2023-05-29T10:07:12;94127.75;;;25.37;38.11
7335;BME280;3708;42.632;23.378;2023-05-29T10:09:45;94136.09;;;25.23;39.94
7335;BME280;3708;42.632;23.378;2023-05-29T10:12:19;94131.63;;;25.36;38.86
7335;BME280;3708;42.632;23.378;2023-05-29T10:14:54;94129.53;;;25.63;38.29
7335;BME280;3708;42.632;23.378;2023-05-29T10:17:26;94130.81;;;25.91;38.15
7335;BME280;3708;42.632;23.378;2023-05-29T10:19:58;94129.06;;;26.00;37.58
7335;BME280;3708;42.632;23.378;2023-05-29T10:22:27;94134.31;;;26.23;37.95
7335;BME280;3708;42.632;23.378;2023-05-29T10:24:56;94124.66;;;26.71;37.07
7335;BME280;3708;42.632;23.378;2023-05-29T10:27:28;94125.34;;;26.75;35.65
7335;BME280;3708;42.632;23.378;2023-05-29T10:30:01;94120.50;;;26.98;35.84
7335;BME280;3708;42.632;23.378;2023-05-29T10:32:36;94112.41;;;27.27;35.24
7335;BME280;3708;42.632;23.378;2023-05-29T10:35:08;94120.97;;;27.22;34.10
7335;BME280;3708;42.632;23.378;2023-05-29T10:37:42;94117.66;;;27.18;34.85
7335;BME280;3708;42.632;23.378;2023-05-29T10:40:12;94121.28;;;27.11;35.50
7335;BME280;3708;42.632;23.378;2023-05-29T10:42:45;94119.06;;;26.94;35.87
7335;BME280;3708;42.632;23.378;2023-05-29T10:48:38;94121.75;;;26.65;40.00
7335;BME280;3708;42.632;23.378;2023-05-29T10:51:06;94121.66;;;26.53;40.52
7335;BME280;3708;42.632;23.378;2023-05-29T10:53:34;94124.06;;;26.34;41.99
7335;BME280;3708;42.632;23.378;2023-05-29T10:56:08;94114.34;;;26.08;42.45
7335;BME280;3708;42.632;23.378;2023-05-29T10:58:37;94109.44;;;25.87;38.87
7335;BME280;3708;42.632;23.378;2023-05-29T11:01:08;94112.19;;;25.67;38.85
7335;BME280;3708;42.632;23.378;2023-05-29T11:03:35;94110.69;;;25.83;39.00
7335;BME280;3708;42.632;23.378;2023-05-29T11:06:03;94108.44;;;25.81;39.26
7335;BME280;3708;42.632;23.378;2023-05-29T11:08:34;94099.38;;;25.91;39.40
7335;BME280;3708;42.632;23.378;2023-05-29T11:11:02;94098.63;;;26.39;40.08
7335;BME280;3708;42.632;23.378;2023-05-29T11:13:32;94104.94;;;26.77;39.87
7335;BME280;3708;42.632;23.378;2023-05-29T11:16:11;94099.00;;;26.70;38.70
7335;BME280;3708;42.632;23.378;2023-05-29T11:18:44;94105.38;;;26.76;39.24
7335;BME280;3708;42.632;23.378;2023-05-29T11:21:31;94092.16;;;26.81;39.54
7335;BME280;3708;42.632;23.378;2023-05-29T11:24:00;94085.59;;;26.54;39.17
7335;BME280;3708;42.632;23.378;2023-05-29T11:26:29;94089.91;;;25.87;39.33
7335;BME280;3708;42.632;23.378;2023-05-29T11:29:00;94077.16;;;25.03;44.16
7335;BME280;3708;42.632;23.378;2023-05-29T11:31:31;94076.13;;;24.11;45.57
7335;BME280;3708;42.632;23.378;2023-05-29T11:34:01;94070.88;;;24.51;44.51
7335;BME280;3708;42.632;23.378;2023-05-29T11:36:30;94081.91;;;25.51;42.40
7335;BME280;3708;42.632;23.378;2023-05-29T11:38:58;94086.19;;;25.97;40.65
7335;BME280;3708;42.632;23.378;2023-05-29T11:41:25;94082.78;;;25.80;38.56
7335;BME280;3708;42.632;23.378;2023-05-29T11:46:46;94067.16;;;26.39;40.66
7335;BME280;3708;42.632;23.378;2023-05-29T11:49:12;94068.03;;;26.65;38.63
7335;BME280;3708;42.632;23.378;2023-05-29T11:51:42;94079.88;;;26.52;38.03
7335;BME280;3708;42.632;23.378;2023-05-29T11:54:12;94074.28;;;26.46;40.87
7335;BME280;3708;42.632;23.378;2023-05-29T11:56:39;94086.47;;;26.34;41.86
7335;BME280;3708;42.632;23.378;2023-05-29T11:59:10;94104.19;;;25.48;44.05
7335;BME280;3708;42.632;23.378;2023-05-29T12:01:37;94100.59;;;25.35;44.34
7335;BME280;3708;42.632;23.378;2023-05-29T12:04:15;94099.78;;;25.57;43.27
7335;BME280;3708;42.632;23.378;2023-05-29T12:06:42;94103.19;;;25.42;43.77
7335;BME280;3708;42.632;23.378;2023-05-29T12:09:23;94097.84;;;25.03;44.39
7335;BME280;3708;42.632;23.378;2023-05-29T12:11:50;94094.25;;;24.89;44.42
7335;BME280;3708;42.632;23.378;2023-05-29T12:14:17;94104.91;;;24.50;44.03
7335;BME280;3708;42.632;23.378;2023-05-29T12:16:44;94096.44;;;24.09;44.74
7335;BME280;3708;42.632;23.378;2023-05-29T12:19:11;94102.97;;;23.81;44.61
7335;BME280;3708;42.632;23.378;2023-05-29T12:21:42;94100.50;;;23.40;44.96
7335;BME280;3708;42.632;23.378;2023-05-29T12:24:10;94097.78;;;23.71;44.76
7335;BME280;3708;42.632;23.378;2023-05-29T12:26:36;94095.59;;;23.89;45.50
7335;BME280;3708;42.632;23.378;2023-05-29T12:29:04;94103.22;;;23.64;45.54
7335;BME280;3708;42.632;23.378;2023-05-29T12:31:32;94093.69;;;23.89;46.02
7335;BME280;3708;42.632;23.378;2023-05-29T12:34:00;94092.59;;;23.87;44.69
7335;BME280;3708;42.632;23.378;2023-05-29T12:36:27;94084.56;;;23.87;44.62
7335;BME280;3708;42.632;23.378;2023-05-29T12:38:56;94091.38;;;23.91;44.80
7335;BME280;3708;42.632;23.378;2023-05-29T12:41:25;94089.31;;;23.99;44.67
7335;BME280;3708;42.632;23.378;2023-05-29T12:43:53;94098.75;;;24.07;45.11
7335;BME280;3708;42.632;23.378;2023-05-29T12:46:20;94106.66;;;23.91;44.87
7335;BME280;3708;42.632;23.378;2023-05-29T12:48:47;94104.31;;;22.79;48.17
7335;BME280;3708;42.632;23.378;2023-05-29T12:51:15;94098.75;;;21.67;51.02
7335;BME280;3708;42.632;23.378;2023-05-29T12:53:44;94097.53;;;21.82;50.36
7335;BME280;3708;42.632;23.378;2023-05-29T12:56:12;94104.41;;;21.21;53.45
7335;BME280;3708;42.632;23.378;2023-05-29T12:58:39;94098.97;;;20.31;56.54
7335;BME280;3708;42.632;23.378;2023-05-29T13:01:12;94095.16;;;20.18;57.04
7335;BME280;3708;42.632;23.378;2023-05-29T13:03:40;94095.09;;;20.53;56.48
7335;BME280;3708;42.632;23.378;2023-05-29T13:06:07;94091.34;;;20.37;57.35
7335;BME280;3708;42.632;23.378;2023-05-29T13:08:34;94095.19;;;19.62;59.51
7335;BME280;3708;42.632;23.378;2023-05-29T13:11:01;94090.59;;;19.52;59.94
7335;BME280;3708;42.632;23.378;2023-05-29T13:13:29;94091.38;;;19.77;58.71
7335;BME280;3708;42.632;23.378;2023-05-29T13:15:56;94089.84;;;20.39;56.74
7335;BME280;3708;42.632;23.378;2023-05-29T13:18:23;94091.38;;;19.73;56.96
7335;BME280;3708;42.632;23.378;2023-05-29T13:20:50;94091.75;;;20.32;56.58
7335;BME280;3708;42.632;23.378;2023-05-29T13:23:16;94090.63;;;20.01;57.18